Provo Municipal Airport Provo US
ICAO: KPVU
IATA: PVU
Category: Medium
Scheduled Services: No

Elevation: 4497 ft
TransAlt. 18000 ft.

Airport Communications:
SALT LAKE CITY APP:124.3
ATIS:135.175
AWOS 3:135.175
SALT LAKE CITY DEP:118.85
GND:119.4
TWR:125.3
CTAF/UNICOM:125.3

KPVU Zoom In..

Runways:

(A) RW 13 length 8599 ft width 150 ft
ILS 110.30 / hdg 134

(B) RW 18 length 6614 ft width 150 ft
---- / hdg 180

(C) RW 31 length 8599 ft width 150 ft
---- / hdg 314

(D) RW 36 length 6614 ft width 150 ft
---- / hdg 360

Location; KPVU
Day. 04 / Time. 03.56 Zulu
* Altimeter: 30.46
* Temperature: -06° c. -21.2°f.
* Wind from: 130° Speed 03 kn.
Dewpoint: -09° c.
Visibility: 10 Statute Miles.
Clouds: Clear (automated report).

KPVU 040356Z 13003KT 10SM CLR M06/M09 A3046 RMK AO2 SLP358 T10561094 FZRANO

Going to: --> -->


Wind From 130°
Speed 03 kn.

 
 
jpsmedia worldairports.se 2020   terms of use